ENBL Informações do Aeroporto

Informações da Pista
Pista 07 Comprimento 3084 ft Largura 0 ft
Elevação 1034 ft Limite 0 ft Heading 0
Pista 25 Comprimento 3084 ft Largura 0 ft
Elevação 1046 ft Limite 0 ft Heading 0
Frequências do Aeroporto
Tipo AFIS Nome Bringeland Frequência 118.45 MHZ
Navaids do Aeroporto
Tipo NDB Nome Bringeland Frequência 374 KHZ
Tipo NDB Nome Fleten Frequência 345 KHZ
Tipo NDB Nome Langeneset Frequência 339 KHZ
Informações meteorológicas do aeroporto e NOTAM
ADDS - METARS form results

(0611 UTC 25 September 2020)
Data provider http://aviationweather.gov/metar/data/
 
METAR text: ENBL 250550Z 05003KT 9999 FEW025 05/03 Q1003
Conditions at: ENBL (FORDE/BRINGELAND, NO) observed 0550 UTC 25 September 2020
Temperature: 5.0°C (41°F)
Dewpoint: 3.0°C (37°F) [RH = 87%]
Pressure (altimeter): 29.62 inches Hg (1003.0 mb)
Winds: from the NE (50 degrees) at 3 MPH (3 knots; 1.5 m/s)
Visibility: 6 or more miles (10+ km)
Ceiling: at least 12,000 feet AGL
Clouds: few clouds at 2500 feet AGL
Weather: no significant weather observed at this time

METAR text: ENBL 250520Z 02004KT 9999 FEW025 05/03 Q1002
Conditions at: ENBL (FORDE/BRINGELAND, NO) observed 0520 UTC 25 September 2020
Temperature: 5.0°C (41°F)
Dewpoint: 3.0°C (37°F) [RH = 87%]
Pressure (altimeter): 29.59 inches Hg (1002.0 mb)
Winds: from the NNE (20 degrees) at 5 MPH (4 knots; 2.1 m/s)
Visibility: 6 or more miles (10+ km)
Ceiling: at least 12,000 feet AGL
Clouds: few clouds at 2500 feet AGL
Weather: no significant weather observed at this time